Time;durP1;ratioP1;P1;durP2;ratioP2;P2;SDS_P1;SDS_P2;PMS_P1;PMS_P2;Temp;Humidity;BMP_temperature;BMP_pressure;BME280_temperature;BME280_humidity;BME280_pressure;Samples;Min_cycle;Max_cycle;Signal;HPM_P1;HPM_P2
2022/07/29 00:02:20;;;;;;;;;7.33;7.33;;;;;23.98;36.77;101292.16;5016811;28;45362;-66
2022/07/29 00:04:46;;;;;;;;;8.00;6.67;;;;;23.90;36.83;101289.63;5017974;28;45509;-66
2022/07/29 00:07:11;;;;;;;;;10.00;10.00;;;;;23.88;37.23;101291.81;5019576;28;46321;-66
2022/07/29 00:09:36;;;;;;;;;9.33;8.33;;;;;23.89;37.70;101284.34;5013201;28;45382;-66
2022/07/29 00:12:02;;;;;;;;;11.67;9.00;;;;;23.70;37.72;101277.81;5016358;28;45416;-66
2022/07/29 00:14:28;;;;;;;;;9.00;8.00;;;;;23.77;37.71;101284.16;5021880;28;45300;-66
2022/07/29 00:16:53;;;;;;;;;13.00;13.00;;;;;23.75;37.38;101286.31;5019466;28;45590;-66
2022/07/29 00:19:19;;;;;;;;;17.33;13.67;;;;;23.63;37.66;101268.66;5020968;28;45598;-66
2022/07/29 00:21:44;;;;;;;;;18.75;15.25;;;;;23.58;38.13;101268.50;5017635;28;45292;-66
2022/07/29 00:24:09;;;;;;;;;15.00;14.33;;;;;23.53;37.95;101271.91;5024086;28;45461;-66
2022/07/29 00:26:35;;;;;;;;;17.00;17.00;;;;;23.48;37.94;101270.88;5017450;28;46506;-66
2022/07/29 00:29:02;;;;;;;;;20.00;16.00;;;;;23.47;38.60;101267.22;5024131;28;45430;-66
2022/07/29 00:31:28;;;;;;;;;22.00;22.00;;;;;23.39;39.09;101269.38;5021376;28;45416;-65
2022/07/29 00:33:53;;;;;;;;;18.25;17.25;;;;;23.33;38.66;101271.13;5023213;28;45318;-66
2022/07/29 00:36:20;;;;;;;;;17.00;16.00;;;;;23.25;38.40;101252.81;5017833;28;46729;-66
2022/07/29 00:38:50;;;;;;;;;18.33;15.67;;;;;23.32;39.10;101263.88;5025765;28;45448;-66
2022/07/29 00:41:16;;;;;;;;;18.50;14.75;;;;;23.35;39.10;101257.91;5012949;28;45327;-66
2022/07/29 00:43:42;;;;;;;;;14.75;14.25;;;;;23.35;39.35;101265.34;5021486;28;45382;-66
2022/07/29 00:46:07;;;;;;;;;22.25;15.50;;;;;23.21;39.52;101257.09;5018953;28;45540;-66
2022/07/29 00:48:32;;;;;;;;;16.75;16.75;;;;;23.22;39.46;101257.94;5025014;28;45457;-66
2022/07/29 00:51:00;;;;;;;;;14.50;13.50;;;;;23.21;39.53;101251.56;5020586;28;45444;-66
2022/07/29 00:53:26;;;;;;;;;15.50;13.75;;;;;23.20;39.20;101249.84;5016069;28;45504;-66
2022/07/29 00:55:54;;;;;;;;;13.67;12.67;;;;;23.21;39.16;101251.56;5018834;28;45543;-66
2022/07/29 00:58:20;;;;;;;;;14.00;12.75;;;;;23.18;39.84;101254.75;5023714;28;45400;-66
2022/07/29 01:00:45;;;;;;;;;12.00;11.67;;;;;23.16;39.66;101253.25;5019052;28;45319;-66
2022/07/29 01:03:11;;;;;;;;;13.67;9.33;;;;;23.12;38.87;101252.88;5022231;28;45227;-66
2022/07/29 01:05:36;;;;;;;;;12.67;11.67;;;;;23.11;39.49;101253.94;5019993;28;45694;-66
2022/07/29 01:08:02;;;;;;;;;12.67;12.00;;;;;23.14;39.14;101239.66;5018395;28;45328;-67
2022/07/29 01:10:29;;;;;;;;;17.00;13.33;;;;;23.24;39.30;101261.34;5019924;28;45463;-68
2022/07/29 01:12:58;;;;;;;;;11.33;11.33;;;;;23.23;39.31;101263.25;5015367;28;45762;-66
2022/07/29 01:15:24;;;;;;;;;11.33;11.00;;;;;23.14;39.86;101258.19;5021759;28;45326;-66
2022/07/29 01:18:18;;;;;;;;;12.00;11.00;;;;;23.04;39.42;101255.88;5021598;28;45275;-66
2022/07/29 01:21:00;;;;;;;;;12.67;10.67;;;;;22.99;40.05;101257.59;5008601;28;45324;-66
2022/07/29 01:23:45;;;;;;;;;8.33;8.33;;;;;22.98;40.69;101261.44;5021393;28;45560;-66
2022/07/29 01:26:33;;;;;;;;;12.33;10.33;;;;;23.05;40.18;101262.25;5018035;28;45481;-66
2022/07/29 01:29:16;;;;;;;;;9.75;9.75;;;;;23.04;40.45;101255.00;5022960;28;45268;-66
2022/07/29 01:31:51;;;;;;;;;10.00;10.00;;;;;23.09;40.18;101261.59;5020167;28;45480;-67
2022/07/29 01:34:29;;;;;;;;;10.00;8.00;;;;;23.05;40.74;101265.88;5022672;28;45488;-67
2022/07/29 01:37:08;;;;;;;;;9.00;9.00;;;;;23.02;40.75;101269.09;5015651;28;46397;-67
2022/07/29 01:39:37;;;;;;;;;11.33;9.00;;;;;23.00;41.35;101268.47;5026453;28;45330;-67
2022/07/29 01:42:23;;;;;;;;;5.75;4.25;;;;;22.99;40.65;101265.91;5014946;28;45524;-66
2022/07/29 01:44:56;;;;;;;;;11.67;11.67;;;;;22.95;41.20;101257.16;5019755;28;45298;-67
2022/07/29 01:47:26;;;;;;;;;8.33;8.33;;;;;22.99;41.20;101258.44;5021085;28;48134;-67
2022/07/29 01:49:56;;;;;;;;;9.33;8.67;;;;;23.07;40.46;101257.38;5016999;28;45348;-67
2022/07/29 01:52:36;;;;;;;;;11.67;11.00;;;;;23.05;40.63;101259.50;5015899;28;45379;-66
2022/07/29 01:55:07;;;;;;;;;3.67;0.00;;;;;23.07;40.66;101266.53;5023245;28;45373;-67
2022/07/29 01:57:37;;;;;;;;;12.33;9.00;;;;;23.08;40.34;101262.69;5023405;28;45328;-66
2022/07/29 02:00:05;;;;;;;;;13.67;9.00;;;;;23.10;40.73;101254.13;5022355;28;45477;-66
2022/07/29 02:02:32;;;;;;;;;8.33;8.33;;;;;23.14;41.11;101253.50;5020721;28;45362;-67
2022/07/29 02:05:01;;;;;;;;;8.33;8.33;;;;;23.12;40.50;101261.19;5017909;28;45527;-66
2022/07/29 02:07:29;;;;;;;;;8.33;8.33;;;;;23.13;40.57;101260.13;5022509;28;45397;-66
2022/07/29 02:09:55;;;;;;;;;6.67;6.67;;;;;23.18;40.06;101257.53;5015379;28;45573;-66
2022/07/29 02:12:23;;;;;;;;;10.00;9.00;;;;;23.15;40.50;101263.53;5015250;28;45433;-67
2022/07/29 02:14:52;;;;;;;;;10.00;9.00;;;;;23.04;40.85;101269.72;5019391;28;45263;-67
2022/07/29 02:17:27;;;;;;;;;7.67;6.00;;;;;22.94;40.67;101265.72;5017276;28;46002;-66
2022/07/29 02:19:59;;;;;;;;;11.00;8.67;;;;;22.90;40.94;101268.91;5023226;28;45801;-67
2022/07/29 02:22:26;;;;;;;;;9.00;9.00;;;;;22.92;41.64;101278.94;5011727;28;45441;-67
2022/07/29 02:24:53;;;;;;;;;8.00;8.00;;;;;22.90;41.15;101265.28;5023505;28;45445;-67
2022/07/29 02:27:20;;;;;;;;;10.67;7.00;;;;;22.91;41.24;101278.06;5014984;28;45616;-67
2022/07/29 02:29:48;;;;;;;;;6.33;6.33;;;;;22.86;40.87;101286.19;5022175;28;45360;-67
2022/07/29 02:32:16;;;;;;;;;9.33;8.00;;;;;22.82;41.51;101280.22;5014491;28;45386;-67
2022/07/29 02:34:43;;;;;;;;;6.00;6.00;;;;;22.79;41.48;101269.56;5021169;28;45402;-66
2022/07/29 02:37:12;;;;;;;;;8.67;8.00;;;;;22.72;41.58;101278.94;5012873;28;45394;-66
2022/07/29 02:39:42;;;;;;;;;11.00;7.67;;;;;22.76;41.86;101272.78;5026805;28;45336;-70
2022/07/29 02:42:12;;;;;;;;;8.33;7.33;;;;;22.66;41.23;101275.09;5016925;28;45462;-67
2022/07/29 02:44:38;;;;;;;;;9.00;8.00;;;;;22.69;41.26;101271.91;5024434;28;45535;-67
2022/07/29 02:47:33;;;;;;;;;7.33;7.00;;;;;22.74;41.42;101279.59;5018817;28;45476;-66
2022/07/29 02:50:13;;;;;;;;;13.00;11.33;;;;;22.75;41.11;101278.53;5021814;28;45457;-67
2022/07/29 02:52:44;;;;;;;;;8.33;8.33;;;;;22.71;41.28;101277.25;5015791;28;45326;-67
2022/07/29 02:55:24;;;;;;;;;10.00;9.33;;;;;22.70;42.02;101281.06;5018049;28;45228;-66
2022/07/29 02:57:59;;;;;;;;;11.00;10.00;;;;;22.67;42.67;101279.56;5014895;28;45485;-66
2022/07/29 03:00:28;;;;;;;;;10.00;10.00;;;;;22.72;43.57;101281.72;5020180;28;45415;-67
2022/07/29 03:02:56;;;;;;;;;12.00;9.67;;;;;22.72;42.82;101276.19;5032741;28;45427;-66
2022/07/29 03:05:22;;;;;;;;;13.00;11.00;;;;;22.79;42.99;101282.59;5020956;28;45484;-68
2022/07/29 03:07:54;;;;;;;;;13.75;13.25;;;;;22.82;43.54;101279.38;5014088;28;46297;-68
2022/07/29 03:10:20;;;;;;;;;14.67;13.00;;;;;22.72;43.94;101285.31;5014327;28;45334;-68
2022/07/29 03:12:47;;;;;;;;;17.75;15.00;;;;;22.69;43.76;101282.13;5018263;28;45483;-67
2022/07/29 03:15:13;;;;;;;;;14.00;13.50;;;;;22.72;43.25;101288.06;5001904;28;45442;-68
2022/07/29 03:17:39;;;;;;;;;14.33;12.00;;;;;22.79;43.52;101279.81;5017896;28;45491;-67
2022/07/29 03:20:07;;;;;;;;;13.00;13.00;;;;;22.70;44.35;101286.59;5019029;28;45480;-67
2022/07/29 03:22:33;;;;;;;;;11.67;11.67;;;;;22.65;43.72;101283.59;5015967;28;45264;-68
2022/07/29 03:25:08;;;;;;;;;13.00;13.00;;;;;22.69;43.93;101290.44;5034367;28;45544;-67
2022/07/29 03:27:34;;;;;;;;;14.25;13.25;;;;;22.71;43.89;101288.31;5015789;28;46477;-67
2022/07/29 03:29:59;;;;;;;;;8.25;8.25;;;;;22.68;44.08;101291.50;5019679;28;45260;-68
2022/07/29 03:32:24;;;;;;;;;10.00;10.00;;;;;22.72;44.04;101298.34;5015000;28;45682;-68
2022/07/29 03:34:50;;;;;;;;;12.67;11.67;;;;;22.70;44.81;101293.00;5021253;28;45563;-68
2022/07/29 03:37:15;;;;;;;;;19.00;12.25;;;;;22.63;44.90;101286.63;5015891;28;48779;-67
2022/07/29 03:39:42;;;;;;;;;11.00;11.00;;;;;22.64;44.36;101288.31;5021538;28;45319;-67
2022/07/29 03:42:11;;;;;;;;;15.67;12.33;;;;;22.70;44.98;101292.16;5014546;28;45743;-68
2022/07/29 03:44:38;;;;;;;;;12.33;10.00;;;;;22.67;45.19;101292.56;5021984;28;45283;-67
2022/07/29 03:47:07;;;;;;;;;11.33;10.33;;;;;22.62;45.34;101290.44;5014783;28;46825;-67
2022/07/29 03:49:37;;;;;;;;;10.67;10.67;;;;;22.60;45.39;101300.88;5021284;28;45739;-68
2022/07/29 03:52:04;;;;;;;;;13.33;13.33;;;;;22.58;45.17;101299.38;5019401;28;45331;-68
2022/07/29 03:54:30;;;;;;;;;13.00;11.67;;;;;22.58;44.37;101299.38;5020657;28;45300;-68
2022/07/29 03:57:00;;;;;;;;;16.67;14.00;;;;;22.59;44.81;101295.56;5014355;28;46507;-68
2022/07/29 03:59:27;;;;;;;;;15.00;15.00;;;;;22.54;45.38;101293.44;5016498;28;45473;-68
2022/07/29 04:01:53;;;;;;;;;16.00;12.00;;;;;22.52;45.10;101301.94;5015210;28;45518;-68
2022/07/29 04:04:18;;;;;;;;;18.50;15.00;;;;;22.55;44.62;101288.75;5009970;28;45236;-68
2022/07/29 04:06:46;;;;;;;;;15.67;13.33;;;;;22.52;46.00;101301.09;5017952;28;45795;-67
2022/07/29 04:09:12;;;;;;;;;19.67;17.67;;;;;22.43;45.68;101303.22;5021162;28;45268;-67
2022/07/29 04:11:41;;;;;;;;;16.00;14.33;;;;;22.47;46.02;101309.19;4974903;28;1152810;-68
2022/07/29 04:14:07;;;;;;;;;18.75;17.25;;;;;22.56;45.62;101312.63;5018312;28;45447;-67
2022/07/29 04:16:32;;;;;;;;;17.50;17.50;;;;;22.47;46.59;101301.75;5013941;28;46403;-67
2022/07/29 04:18:58;;;;;;;;;16.50;16.00;;;;;22.44;46.77;101307.69;5022356;28;45387;-67
2022/07/29 04:21:24;;;;;;;;;10.33;8.00;;;;;22.50;46.04;101309.59;5015995;28;45540;-68
2022/07/29 04:23:49;;;;;;;;;15.67;15.67;;;;;22.45;46.36;101305.78;5022731;28;45228;-68
2022/07/29 04:26:19;;;;;;;;;14.50;13.25;;;;;22.38;46.98;101316.00;5015878;28;46218;-69
2022/07/29 04:28:46;;;;;;;;;17.25;16.00;;;;;22.39;46.79;101315.78;5020951;28;45526;-68
2022/07/29 04:31:12;;;;;;;;;14.33;14.00;;;;;22.52;46.98;101315.78;5031149;28;45374;-68
2022/07/29 04:33:38;;;;;;;;;17.00;16.00;;;;;22.47;47.07;101301.75;5021207;28;45601;-68
2022/07/29 04:36:04;;;;;;;;;13.67;13.67;;;;;22.45;47.09;101314.94;5018943;28;45647;-68
2022/07/29 04:38:30;;;;;;;;;15.25;14.75;;;;;22.38;46.88;101304.94;5020504;28;45477;-68
2022/07/29 04:40:55;;;;;;;;;15.00;14.67;;;;;22.44;46.00;101316.00;5013365;28;45754;-68
2022/07/29 04:43:20;;;;;;;;;15.33;12.67;;;;;22.47;46.26;101315.59;5024821;28;45612;-68
2022/07/29 04:45:45;;;;;;;;;14.33;12.33;;;;;22.51;46.30;101319.63;5018481;28;45434;-68
2022/07/29 04:48:11;;;;;;;;;14.67;14.67;;;;;22.49;46.44;101324.53;5011104;28;52793;-68
2022/07/29 04:50:40;;;;;;;;;11.75;11.75;;;;;22.55;46.52;101321.97;5034183;28;45363;-69
2022/07/29 04:53:06;;;;;;;;;15.75;13.75;;;;;22.61;47.06;101321.97;5017253;28;45585;-68
2022/07/29 04:55:31;;;;;;;;;20.50;18.50;;;;;22.71;46.67;101321.56;5016538;28;45430;-67
2022/07/29 04:57:56;;;;;;;;;15.00;13.25;;;;;22.83;46.95;101319.88;5012519;28;45344;-67
2022/07/29 05:00:23;;;;;;;;;34.75;27.25;;;;;22.93;45.85;101330.53;5017685;28;45514;-67
2022/07/29 05:02:48;;;;;;;;;21.50;19.25;;;;;23.11;45.97;101328.78;5029629;28;45272;-67
2022/07/29 05:05:14;;;;;;;;;36.75;31.50;;;;;23.17;45.11;101322.34;5019688;28;46176;-67
2022/07/29 05:07:39;;;;;;;;;20.75;20.50;;;;;23.22;44.96;101328.13;5013156;28;45160;-67
2022/07/29 05:10:05;;;;;;;;;21.00;19.75;;;;;23.25;44.78;101330.44;5016159;28;45357;-66
2022/07/29 05:12:30;;;;;;;;;21.50;16.25;;;;;23.40;43.65;101327.41;5015722;28;45329;-67
2022/07/29 05:14:55;;;;;;;;;19.75;19.75;;;;;23.53;43.01;101327.38;5016986;28;46337;-67
2022/07/29 05:17:21;;;;;;;;;23.75;18.25;;;;;23.71;42.31;101329.44;5016063;28;45363;-66
2022/07/29 05:19:46;;;;;;;;;19.75;19.50;;;;;23.74;41.99;101323.47;5024271;28;45625;-67
2022/07/29 05:22:11;;;;;;;;;22.00;19.75;;;;;23.96;42.00;101322.03;5014943;28;45348;-66
2022/07/29 05:24:37;;;;;;;;;19.50;18.50;;;;;24.01;41.98;101325.03;5018283;28;45284;-67
2022/07/29 05:27:02;;;;;;;;;20.50;18.00;;;;;24.33;40.49;101327.81;5020566;28;45469;-67
2022/07/29 05:29:27;;;;;;;;;27.75;25.50;;;;;24.33;40.88;101327.81;5024315;28;45383;-67
2022/07/29 05:31:53;;;;;;;;;29.00;21.00;;;;;24.14;40.66;101332.41;5021762;28;45318;-67
2022/07/29 05:34:19;;;;;;;;;23.75;21.50;;;;;24.16;41.23;101338.59;5039800;28;47433;-67
2022/07/29 05:36:45;;;;;;;;;27.75;22.25;;;;;24.39;40.39;101338.06;5015061;28;45450;-67
2022/07/29 05:39:11;;;;;;;;;30.25;25.00;;;;;24.49;40.38;101332.81;5023213;28;45337;-67
2022/07/29 05:41:36;;;;;;;;;27.25;23.00;;;;;24.66;40.04;101335.91;5017503;28;45508;-67
2022/07/29 05:44:01;;;;;;;;;21.25;15.25;;;;;24.71;39.39;101342.47;5022758;28;45449;-67
2022/07/29 05:46:27;;;;;;;;;24.50;23.00;;;;;24.70;39.77;101339.91;5016252;28;45373;-67
2022/07/29 05:48:52;;;;;;;;;25.50;23.25;;;;;24.66;39.95;101345.09;5035881;28;45494;-67
2022/07/29 05:51:18;;;;;;;;;19.75;17.25;;;;;24.33;41.13;101339.78;5018413;28;45366;-66
2022/07/29 05:53:44;;;;;;;;;21.00;18.25;;;;;24.05;41.24;101351.25;5024015;28;45480;-67
2022/07/29 05:56:10;;;;;;;;;21.25;18.25;;;;;24.16;41.18;101337.75;5019942;28;45255;-67
2022/07/29 05:58:36;;;;;;;;;22.00;17.25;;;;;24.32;40.70;101348.34;5015806;28;45379;-67
2022/07/29 06:01:01;;;;;;;;;20.25;17.25;;;;;24.37;40.32;101348.53;5020647;28;45284;-67
2022/07/29 06:03:27;;;;;;;;;16.75;14.25;;;;;24.16;39.88;101354.41;5012765;28;46122;-66
2022/07/29 06:05:52;;;;;;;;;14.75;13.75;;;;;24.18;39.82;101352.28;5018160;28;45404;-67
2022/07/29 06:08:18;;;;;;;;;16.75;14.25;;;;;24.25;39.89;101353.97;5020799;28;45570;-67
2022/07/29 06:10:44;;;;;;;;;15.33;12.33;;;;;24.35;39.41;101354.31;5036028;28;45721;-67
2022/07/29 06:13:09;;;;;;;;;10.67;9.67;;;;;24.32;39.52;101353.91;5017415;28;46396;-67
2022/07/29 06:15:35;;;;;;;;;12.67;10.67;;;;;24.37;39.58;101354.09;5020580;28;45339;-66
2022/07/29 06:18:00;;;;;;;;;10.00;10.00;;;;;24.38;39.28;101364.13;5017006;28;45451;-66
2022/07/29 06:20:26;;;;;;;;;13.33;13.33;;;;;24.19;39.86;101365.91;5021696;28;46579;-67
2022/07/29 06:22:52;;;;;;;;;14.67;12.00;;;;;24.03;40.22;101364.53;5014405;28;45694;-67
2022/07/29 06:25:17;;;;;;;;;14.33;12.33;;;;;24.09;40.76;101361.94;5018824;28;45541;-66
2022/07/29 06:27:42;;;;;;;;;15.25;12.25;;;;;24.24;40.61;101362.50;5017396;28;45379;-66
2022/07/29 06:30:08;;;;;;;;;16.75;14.00;;;;;24.29;40.21;101357.97;5021982;28;45523;-67
2022/07/29 06:32:35;;;;;;;;;9.00;9.00;;;;;24.25;39.85;101362.28;5022541;28;48717;-66
2022/07/29 06:35:00;;;;;;;;;17.00;12.00;;;;;24.18;40.18;101357.81;5022214;28;45468;-67
2022/07/29 06:37:25;;;;;;;;;13.00;13.00;;;;;24.26;40.23;101368.66;5018110;28;45326;-67
2022/07/29 06:40:59;;;;;;;;;9.00;8.00;;;;;24.21;40.02;101360.16;5022690;28;45247;-66
2022/07/29 06:42:36;;;;;;;;;18.67;11.33;;;;;24.49;38.79;101371.72;5014436;28;46418;-67
2022/07/29 06:45:01;;;;;;;;;10.00;10.00;;;;;24.66;38.92;101359.00;5020947;28;45486;-67
2022/07/29 06:47:27;;;;;;;;;12.67;9.33;;;;;25.02;38.58;101371.31;5013478;28;45516;-67
2022/07/29 06:49:52;;;;;;;;;15.67;12.33;;;;;25.01;38.64;101370.47;5022802;28;45605;-67
2022/07/29 06:52:18;;;;;;;;;19.00;14.00;;;;;25.28;38.31;101382.16;5016656;28;45445;-67
2022/07/29 06:54:47;;;;;;;;;12.00;10.67;;;;;25.51;37.48;101375.94;5022922;28;45340;-67
2022/07/29 06:57:13;;;;;;;;;8.00;8.00;;;;;25.71;36.94;101370.19;5016229;28;45339;-67
2022/07/29 06:59:38;;;;;;;;;12.00;11.00;;;;;25.78;37.38;101374.59;5022536;28;45216;-67
2022/07/29 07:02:04;;;;;;;;;7.00;5.67;;;;;25.92;36.09;101375.25;5016560;28;46165;-67
2022/07/29 07:04:29;;;;;;;;;10.00;8.67;;;;;26.00;35.94;101382.44;5017975;28;45321;-68
2022/07/29 07:06:55;;;;;;;;;12.00;10.00;;;;;26.06;36.34;101368.41;5017855;28;45298;-67
2022/07/29 07:09:20;;;;;;;;;12.67;10.00;;;;;26.06;36.38;101385.13;5020581;28;45637;-67
2022/07/29 07:11:46;;;;;;;;;9.67;8.67;;;;;26.17;36.08;101386.25;5017506;28;45504;-67
2022/07/29 07:14:11;;;;;;;;;18.25;15.00;;;;;26.15;36.10;101377.31;5013093;28;45273;-67
2022/07/29 07:16:36;;;;;;;;;8.00;7.67;;;;;26.03;36.04;101380.00;5014213;28;45371;-69
2022/07/29 07:19:02;;;;;;;;;11.00;9.00;;;;;26.21;35.22;101384.72;5023365;28;45380;-68
2022/07/29 07:21:28;;;;;;;;;8.33;8.33;;;;;26.49;35.54;101381.31;5014529;28;46883;-67
2022/07/29 07:23:53;;;;;;;;;11.00;11.00;;;;;26.68;34.39;101389.34;5020170;28;45603;-66
2022/07/29 07:26:19;;;;;;;;;10.00;9.00;;;;;26.55;34.76;101388.72;5017186;28;45435;-66
2022/07/29 07:28:44;;;;;;;;;13.00;8.67;;;;;26.66;34.47;101385.97;5018243;28;45454;-66
2022/07/29 07:31:10;;;;;;;;;11.33;8.67;;;;;26.78;34.70;101394.34;5016073;28;45399;-66
2022/07/29 07:33:35;;;;;;;;;12.75;12.75;;;;;26.57;34.68;101398.56;5010457;28;45282;-66
2022/07/29 07:36:01;;;;;;;;;17.67;13.00;;;;;26.58;35.25;101396.63;5019216;28;45443;-66
2022/07/29 07:38:26;;;;;;;;;14.33;11.00;;;;;26.74;35.32;101393.97;5021242;28;45521;-67
2022/07/29 07:40:51;;;;;;;;;16.25;11.00;;;;;26.77;35.35;101392.66;5020534;28;46639;-66
2022/07/29 07:43:17;;;;;;;;;15.25;14.25;;;;;26.67;36.33;101403.53;5014305;28;45438;-67
2022/07/29 07:45:42;;;;;;;;;15.00;12.33;;;;;26.65;36.40;101394.56;5018069;28;45390;-67
2022/07/29 07:48:09;;;;;;;;;11.33;9.67;;;;;26.62;36.73;101390.31;5032938;28;45386;-66
2022/07/29 07:50:35;;;;;;;;;15.00;12.00;;;;;26.68;35.89;101394.09;5018273;28;45466;-66
2022/07/29 07:53:01;;;;;;;;;9.67;9.67;;;;;27.01;35.84;101388.84;5015426;28;45299;-66
2022/07/29 07:55:27;;;;;;;;;15.67;13.00;;;;;27.33;35.45;101397.69;5019711;28;45318;-66
2022/07/29 07:57:53;;;;;;;;;17.33;12.00;;;;;27.63;34.51;101393.94;5014349;28;45365;-66
2022/07/29 08:00:19;;;;;;;;;14.25;12.75;;;;;27.48;34.64;101399.97;5019237;28;46734;-67
2022/07/29 08:02:45;;;;;;;;;12.33;9.67;;;;;27.66;34.33;101391.50;5012927;28;45405;-66
2022/07/29 08:05:15;;;;;;;;;13.00;11.33;;;;;27.70;34.09;101395.50;5016104;28;45400;-66
2022/07/29 08:07:41;;;;;;;;;11.33;11.33;;;;;28.04;33.57;101395.66;5012302;28;45433;-66
2022/07/29 08:10:07;;;;;;;;;11.33;11.33;;;;;27.92;34.27;101400.41;5015718;28;45324;-67
2022/07/29 08:12:32;;;;;;;;;11.00;11.00;;;;;27.92;33.60;101401.25;5013306;28;45367;-66
2022/07/29 08:14:58;;;;;;;;;11.00;11.00;;;;;28.03;33.02;101402.34;5021518;28;45353;-66
2022/07/29 08:17:23;;;;;;;;;12.00;10.33;;;;;27.98;32.90;101388.28;5018997;28;45448;-66
2022/07/29 08:19:49;;;;;;;;;16.33;13.33;;;;;27.98;33.45;101402.25;5020767;28;45593;-66
2022/07/29 08:22:15;;;;;;;;;11.67;8.67;;;;;28.12;32.78;101406.44;5012762;28;46866;-66
2022/07/29 08:24:43;;;;;;;;;9.00;9.00;;;;;28.25;32.59;101398.66;5021229;28;45231;-66
2022/07/29 08:27:12;;;;;;;;;8.33;8.33;;;;;28.25;31.92;101403.38;5015151;28;45786;-66
2022/07/29 08:29:38;;;;;;;;;12.67;9.67;;;;;28.03;32.54;101397.59;5019694;28;45383;-66
2022/07/29 08:32:03;;;;;;;;;10.00;10.00;;;;;28.13;32.69;101396.94;5011736;28;45926;-66
2022/07/29 08:34:29;;;;;;;;;12.00;9.00;;;;;28.56;31.72;101399.22;5017733;28;45389;-66
2022/07/29 08:36:55;;;;;;;;;12.00;8.33;;;;;28.73;30.89;101394.47;5011939;28;46171;-66
2022/07/29 08:39:21;;;;;;;;;8.67;6.67;;;;;28.53;31.34;101385.75;5015165;28;45417;-65
2022/07/29 08:41:47;;;;;;;;;8.67;8.67;;;;;28.51;31.61;101393.53;5012279;28;45462;-65
2022/07/29 08:44:15;;;;;;;;;11.00;6.67;;;;;28.54;31.06;101393.03;5019223;28;45585;-65
2022/07/29 08:46:40;;;;;;;;;8.00;8.00;;;;;28.87;30.70;101395.03;5014108;28;45510;-67
2022/07/29 08:49:06;;;;;;;;;8.67;7.33;;;;;28.73;30.64;101397.28;5022731;28;46324;-66
2022/07/29 08:51:35;;;;;;;;;6.67;4.33;;;;;29.34;30.63;101398.31;5018473;28;45405;-66
2022/07/29 08:54:00;;;;;;;;;7.00;7.00;;;;;29.75;29.87;101394.16;5025211;28;45336;-66
2022/07/29 08:56:27;;;;;;;;;8.00;8.00;;;;;29.77;29.16;101403.16;5021390;28;45465;-67
2022/07/29 08:58:53;;;;;;;;;10.00;7.00;;;;;29.87;28.95;101400.50;5024065;28;46661;-67
2022/07/29 09:01:24;;;;;;;;;7.33;6.00;;;;;30.10;28.51;101389.03;5022392;28;45454;-67
2022/07/29 09:03:54;;;;;;;;;9.00;7.00;;;;;30.05;28.70;101393.72;5019754;28;45414;-67
2022/07/29 09:06:21;;;;;;;;;7.00;7.00;;;;;30.31;28.69;101392.94;5019024;28;45327;-67
2022/07/29 09:08:48;;;;;;;;;5.33;5.33;;;;;29.92;28.40;101394.97;5018630;28;45975;-67
2022/07/29 09:11:14;;;;;;;;;6.00;5.33;;;;;30.33;28.17;101395.44;5014440;28;45360;-67
2022/07/29 09:13:40;;;;;;;;;5.67;5.00;;;;;30.28;28.74;101399.06;5017563;28;45534;-67
2022/07/29 09:16:05;;;;;;;;;2.00;2.00;;;;;30.66;28.75;101386.88;5020061;28;45347;-67
2022/07/29 09:18:48;;;;;;;;;3.67;3.67;;;;;31.06;27.85;101385.53;5022704;28;45956;-67
2022/07/29 09:24:10;;;;;;;;;5.33;4.33;;;;;31.52;26.44;101387.53;5025013;28;45324;-67
2022/07/29 09:26:40;;;;;;;;;6.33;6.33;;;;;31.26;26.78;101382.91;5018032;28;45428;-67
2022/07/29 09:29:16;;;;;;;;;6.67;6.33;;;;;31.46;26.60;101379.38;5024145;28;45381;-67
2022/07/29 09:31:43;;;;;;;;;8.00;5.33;;;;;31.40;26.45;101380.47;5019058;28;45439;-67
2022/07/29 09:34:10;;;;;;;;;5.33;4.00;;;;;31.74;27.09;101381.78;5023168;28;45505;-67
2022/07/29 09:36:44;;;;;;;;;7.00;7.00;;;;;31.74;26.53;101386.56;5017221;28;45387;-67
2022/07/29 09:39:09;;;;;;;;;11.00;4.67;;;;;31.52;26.81;101381.06;5020729;28;47211;-67
2022/07/29 09:42:05;;;;;;;;;5.00;5.00;;;;;31.72;26.95;101386.81;5031407;28;45384;-67
2022/07/29 09:44:47;;;;;;;;;4.00;4.00;;;;;32.39;26.48;101389.63;4999839;28;45435;-67
2022/07/29 09:47:14;;;;;;;;;5.00;5.00;;;;;32.31;25.15;101378.94;5014673;28;45323;-67
2022/07/29 09:49:59;;;;;;;;;6.33;4.67;;;;;32.77;25.69;101382.69;5019004;28;45432;-67
2022/07/29 09:52:29;;;;;;;;;3.33;3.33;;;;;32.37;25.23;101383.44;5017843;28;45406;-67
2022/07/29 09:55:15;;;;;;;;;5.00;5.00;;;;;32.39;25.25;101388.78;5015905;28;45358;-67
2022/07/29 09:57:41;;;;;;;;;6.00;6.00;;;;;32.54;24.78;101379.53;5015764;28;45565;-67
2022/07/29 10:00:06;;;;;;;;;6.00;6.00;;;;;32.59;25.04;101380.38;5002994;28;46238;-67
2022/07/29 10:02:34;;;;;;;;;4.67;4.67;;;;;32.45;24.33;101396.94;5019790;28;45465;-67
2022/07/29 10:05:03;;;;;;;;;6.00;5.00;;;;;32.54;24.90;101387.97;5015132;28;45295;-66
2022/07/29 10:07:46;;;;;;;;;5.33;3.00;;;;;32.75;24.20;101386.91;5020393;28;45469;-67
2022/07/29 10:10:19;;;;;;;;;4.33;4.33;;;;;32.71;24.18;101382.97;5019486;28;46204;-67
2022/07/29 10:12:57;;;;;;;;;6.00;6.00;;;;;33.38;24.26;101384.66;5015563;28;45440;-68
2022/07/29 10:15:24;;;;;;;;;4.00;4.00;;;;;33.55;23.59;101383.16;5020420;28;46046;-67
2022/07/29 10:17:51;;;;;;;;;5.00;5.00;;;;;34.08;22.74;101397.66;5018258;28;45508;-67
2022/07/29 10:20:17;;;;;;;;;3.33;3.33;;;;;34.43;22.86;101393.81;5021383;28;46284;-67
2022/07/29 10:22:43;;;;;;;;;3.33;3.33;;;;;34.64;22.88;101389.72;5019099;28;45425;-68
2022/07/29 10:25:10;;;;;;;;;4.67;4.00;;;;;34.85;21.81;101373.47;5021167;28;45609;-67
2022/07/29 10:27:36;;;;;;;;;5.00;4.33;;;;;34.97;22.34;101381.59;5018809;28;45573;-67
2022/07/29 10:30:04;;;;;;;;;4.67;4.00;;;;;34.53;22.19;101388.13;5021482;28;45383;-68
2022/07/29 10:32:37;;;;;;;;;6.00;6.00;;;;;34.08;22.69;101382.72;5016429;28;45952;-68
2022/07/29 10:35:12;;;;;;;;;4.00;4.00;;;;;34.31;22.15;101390.53;5018072;28;45355;-67
2022/07/29 10:38:03;;;;;;;;;3.00;3.00;;;;;34.80;21.88;101382.00;5018676;28;45371;-67
2022/07/29 10:43:37;;;;;;;;;5.33;4.00;;;;;34.28;23.12;101385.44;5022364;28;45442;-67
2022/07/29 10:46:04;;;;;;;;;7.00;5.67;;;;;34.56;21.64;101390.34;5017939;28;45463;-67
2022/07/29 10:48:30;;;;;;;;;6.00;6.00;;;;;34.95;21.60;101389.50;5022132;28;45593;-67
2022/07/29 10:51:02;;;;;;;;;5.00;5.00;;;;;34.96;21.34;101397.69;5022056;28;47518;-67
2022/07/29 10:53:47;;;;;;;;;6.67;6.33;;;;;35.44;21.50;101390.16;5014608;28;45253;-67
2022/07/29 10:56:40;;;;;;;;;6.00;4.00;;;;;36.11;20.55;101390.25;5013697;28;45628;-67
2022/07/29 10:59:20;;;;;;;;;6.00;6.00;;;;;36.11;20.05;101393.91;5021210;28;45467;-67
2022/07/29 11:01:51;;;;;;;;;4.00;4.00;;;;;36.17;19.97;101389.88;5013776;28;48703;-68
2022/07/29 11:04:45;;;;;;;;;4.00;4.00;;;;;36.47;20.78;101387.75;5037649;28;45408;-68
2022/07/29 11:07:12;;;;;;;;;5.00;5.00;;;;;35.80;20.85;101384.97;5019341;28;45573;-68
2022/07/29 11:09:38;;;;;;;;;7.33;7.33;;;;;35.76;20.98;101394.38;5022368;28;45648;-67
2022/07/29 11:12:24;;;;;;;;;6.00;6.00;;;;;35.48;20.67;101391.28;5018635;28;45558;-68
2022/07/29 11:15:01;;;;;;;;;5.33;5.33;;;;;35.98;20.67;101385.34;5016329;28;45513;-68
2022/07/29 11:17:27;;;;;;;;;4.00;3.67;;;;;35.86;20.75;101388.59;5019990;28;45265;-68
2022/07/29 11:20:31;;;;;;;;;5.00;5.00;;;;;35.67;20.89;101391.31;5022266;28;45414;-68
2022/07/29 11:22:56;;;;;;;;;4.00;4.00;;;;;36.18;20.89;101382.25;5020346;28;45488;-68
2022/07/29 11:25:22;;;;;;;;;5.00;5.00;;;;;35.92;20.39;101384.56;5020474;28;45604;-68
2022/07/29 11:27:47;;;;;;;;;4.33;4.33;;;;;36.16;20.16;101388.19;5021694;28;45340;-68
2022/07/29 11:30:13;;;;;;;;;4.00;4.00;;;;;36.15;20.56;101391.34;5019276;28;45391;-68